.
WxDataArchive / Data Records for 2012-06-07
2012-06-06 June 2012 2012-06-08

Data Records for Thursday, 07 June 2012

Time	Temp	Chill	HIndex	Humid	Dewpt	 Wind 	HiWind	WindDir	Rain 	Barom 
-----	----	-----	------	-----	-----	------	------	-------	-----	----- 
00:00	61.2	61.2	61.2	63	48.5	0	0	---	0.00	30.031 
00:05	61.2	61.2	61.2	63	48.5	0	0	---	0.00	30.031 
00:10	61.2	61.2	61.2	63	48.5	0	0	---	0.00	30.031 
00:15	61.2	61.2	61.2	64	48.9	0	0	---	0.00	30.039 
00:20	61.5	61.5	61.5	63	48.8	0	2	90	0.00	30.039 
00:25	62.0	62.0	62.0	60	48.0	0	2	90	0.00	30.039 
00:30	62.3	62.3	62.3	60	48.2	0	1	90	0.00	30.042 
00:35	62.4	62.4	62.4	59	47.9	0	0	---	0.00	30.042 
00:40	62.4	62.4	62.4	59	47.9	0	0	---	0.00	30.042 
00:45	62.4	62.4	62.4	59	47.9	0	0	---	0.00	30.041 
00:50	62.4	62.4	62.4	58	47.4	0	0	---	0.00	30.041 
00:55	62.6	62.6	62.6	59	48.1	0	0	---	0.00	30.041 
01:00	62.6	62.6	62.6	58	47.6	0	0	---	0.00	30.047 
01:05	62.6	62.6	62.6	59	48.1	0	0	---	0.00	30.047 
01:10	62.6	62.6	62.6	58	47.6	0	0	---	0.00	30.047 
01:15	62.6	62.6	62.6	58	47.6	0	0	---	0.00	30.048 
01:20	62.6	62.6	62.6	59	48.1	0	0	---	0.00	30.048 
01:25	62.4	62.4	62.4	59	47.9	0	0	---	0.00	30.048 
01:30	62.3	62.3	62.3	59	47.8	0	0	---	0.00	30.045 
01:35	62.1	62.1	62.1	59	47.6	0	0	---	0.00	30.045 
01:40	62.0	62.0	62.0	59	47.5	0	0	---	0.00	30.045 
01:45	62.0	62.0	62.0	59	47.5	0	0	---	0.00	30.046 
01:50	61.8	61.8	61.8	60	47.8	0	0	---	0.00	30.046 
01:55	61.5	61.5	61.5	60	47.5	0	0	---	0.00	30.046 
02:00	61.2	61.2	61.2	61	47.6	0	0	---	0.00	30.046 
02:05	60.9	60.9	60.9	61	47.4	0	0	---	0.00	30.046 
02:10	60.5	60.5	60.5	62	47.4	0	0	---	0.00	30.046 
02:15	60.2	60.2	60.2	63	47.6	0	0	---	0.00	30.043 
02:20	59.9	59.9	59.9	63	47.3	0	0	---	0.00	30.043 
02:25	59.6	59.6	59.6	64	47.4	0	0	---	0.00	30.043 
02:30	59.2	59.2	59.2	65	47.4	0	0	---	0.00	30.052 
02:35	58.9	58.9	58.9	66	47.6	0	0	---	0.00	30.052 
02:40	58.4	58.4	58.4	67	47.5	0	0	---	0.00	30.052 
02:45	58.1	58.1	58.1	68	47.6	0	0	---	0.00	30.049 
02:50	57.8	57.8	57.8	69	47.7	0	0	---	0.00	30.049 
02:55	57.5	57.5	57.5	71	48.2	0	1	90	0.00	30.049 
03:00	57.3	57.3	57.3	72	48.3	0	0	---	0.00	30.050 
03:05	57.0	57.0	57.0	73	48.4	0	0	---	0.00	30.050 
03:10	56.9	56.9	56.9	73	48.3	0	0	---	0.00	30.050 
03:15	56.7	56.7	56.7	74	48.5	0	0	---	0.00	30.053 
03:20	56.5	56.5	56.5	74	48.3	0	0	---	0.00	30.053 
03:25	56.5	56.5	56.5	74	48.3	0	0	---	0.00	30.053 
03:30	56.3	56.3	56.3	75	48.5	0	0	---	0.00	30.050 
03:35	56.3	56.3	56.3	75	48.5	0	0	---	0.00	30.050 
03:40	56.5	56.5	56.5	75	48.7	0	0	---	0.00	30.050 
03:45	56.6	56.6	56.6	76	49.1	0	0	---	0.00	30.046 
03:50	56.7	56.7	56.7	76	49.2	0	0	---	0.00	30.046 
03:55	56.7	56.7	56.7	75	48.9	0	0	---	0.00	30.046 
04:00	56.9	56.9	56.9	75	49.1	0	0	---	0.00	30.044 
04:05	56.9	56.9	56.9	75	49.1	0	0	---	0.00	30.044 
04:10	57.0	57.0	57.0	75	49.2	0	0	---	0.00	30.044 
04:15	56.9	56.9	56.9	76	49.4	0	0	---	0.00	30.048 
04:20	56.7	56.7	56.7	77	49.6	0	0	---	0.00	30.048 
04:25	56.6	56.6	56.6	77	49.5	0	0	---	0.00	30.048 
04:30	56.5	56.5	56.5	77	49.4	0	0	---	0.00	30.051 
04:35	56.3	56.3	56.3	78	49.5	0	0	---	0.00	30.051 
04:40	56.2	56.2	56.2	78	49.4	0	0	---	0.00	30.051 
04:45	56.2	56.2	56.2	79	49.8	0	0	---	0.00	30.049 
04:50	56.0	56.0	56.0	79	49.6	0	0	---	0.00	30.049 
04:55	55.9	55.9	55.9	79	49.5	0	0	---	0.00	30.049 
05:00	55.7	55.7	55.7	80	49.6	0	1	68	0.00	30.053 
05:05	55.6	55.6	55.6	80	49.5	0	0	---	0.00	30.053 
05:10	55.6	55.6	55.6	80	49.5	0	0	---	0.00	30.053 
05:15	55.4	55.4	55.4	80	49.3	0	0	---	0.00	30.057 
05:20	55.3	55.3	55.3	81	49.6	0	0	---	0.00	30.057 
05:25	55.1	55.1	55.1	81	49.4	0	0	---	0.00	30.057 
05:30	55.1	55.1	55.1	82	49.7	0	0	---	0.00	30.061 
05:35	55.0	55.0	55.0	82	49.6	0	0	---	0.00	30.061 
05:40	55.0	55.0	55.0	83	49.9	0	0	---	0.00	30.061 
05:45	55.0	55.0	55.0	83	49.9	0	0	---	0.00	30.065 
05:50	55.1	55.1	55.1	83	50.0	0	0	---	0.00	30.065 
05:55	55.1	55.1	55.1	83	50.0	0	0	---	0.00	30.065 
06:00	55.0	55.0	55.0	83	49.9	0	0	---	0.00	30.067 
06:05	54.8	54.8	54.8	83	49.7	0	0	---	0.00	30.067 
06:10	54.8	54.8	54.8	83	49.7	0	0	---	0.00	30.067 
06:15	54.8	54.8	54.8	83	49.7	0	0	---	0.00	30.073 
06:20	54.7	54.7	54.7	84	50.0	0	0	---	0.00	30.073 
06:25	54.7	54.7	54.7	84	50.0	0	0	---	0.00	30.073 
06:30	54.7	54.7	54.7	84	50.0	0	0	---	0.00	30.071 
06:35	54.7	54.7	54.7	84	50.0	0	0	---	0.00	30.071 
06:40	54.5	54.5	54.5	84	49.8	0	0	---	0.00	30.071 
06:45	54.5	54.5	54.5	85	50.1	0	0	---	0.00	30.072 
06:50	54.7	54.7	54.7	85	50.3	0	0	---	0.00	30.072 
06:55	54.7	54.7	54.7	85	50.3	0	0	---	0.00	30.072 
07:00	54.8	54.8	54.8	85	50.4	0	0	---	0.00	30.071 
07:05	55.0	55.0	55.0	86	50.9	0	0	---	0.00	30.071 
07:10	55.6	55.6	55.6	86	51.5	0	0	---	0.00	30.071 
07:15	56.2	56.2	56.2	85	51.7	0	0	---	0.00	30.073 
07:20	56.7	56.7	56.7	84	51.9	0	0	---	0.00	30.073 
07:25	57.3	57.3	57.3	84	52.5	0	0	---	0.00	30.073 
07:30	58.0	58.0	58.0	82	52.5	0	0	---	0.00	30.075 
07:35	58.6	58.6	58.6	81	52.8	0	0	---	0.00	30.075 
07:40	59.2	59.2	59.2	79	52.7	0	0	---	0.00	30.075 
07:45	59.9	59.9	59.9	77	52.7	0	0	---	0.00	30.073 
07:50	60.5	60.5	60.5	75	52.5	0	1	68	0.00	30.073 
07:55	61.3	61.3	61.3	73	52.6	0	1	68	0.00	30.073 
08:00	61.8	61.8	61.8	71	52.3	0	1	68	0.00	30.078 
08:05	62.6	62.6	62.6	70	52.7	0	0	---	0.00	30.078 
08:10	63.2	63.2	63.2	68	52.5	0	1	68	0.00	30.078 
08:15	64.0	64.0	64.0	67	52.8	0	1	68	0.00	30.085 
08:20	64.8	64.8	64.8	65	52.8	0	1	68	0.00	30.085 
08:25	65.3	65.3	65.3	64	52.8	0	1	68	0.00	30.085 
08:30	65.8	65.8	65.8	63	52.8	0	1	68	0.00	30.084 
08:35	66.0	66.0	66.0	61	52.2	1	2	68	0.00	30.084 
08:40	66.4	66.4	66.4	62	53.0	0	1	338	0.00	30.084 
08:45	67.1	67.1	67.1	59	52.3	0	1	338	0.00	30.084 
08:50	67.8	67.8	67.8	58	52.5	0	2	338	0.00	30.084 
08:55	68.3	68.3	68.3	55	51.5	0	1	338	0.00	30.084 
09:00	68.9	68.9	68.9	54	51.6	0	1	338	0.00	30.082 
09:05	69.6	69.6	69.6	52	51.2	0	1	338	0.00	30.082 
09:10	69.8	69.8	69.8	50	50.3	1	2	338	0.00	30.082 
09:15	70.3	70.3	70.3	50	50.8	0	2	338	0.00	30.088 
09:20	70.8	70.8	70.8	50	51.2	0	1	338	0.00	30.088 
09:25	71.3	71.3	71.3	46	49.4	0	1	338	0.00	30.088 
09:30	72.1	72.1	72.1	45	49.6	0	1	338	0.00	30.086 
09:35	73.0	73.0	73.0	45	50.4	0	2	338	0.00	30.086 
09:40	73.5	73.5	73.5	45	50.8	1	2	338	0.00	30.086 
09:45	73.9	73.9	73.9	43	50.0	0	2	338	0.00	30.083 
09:50	74.0	74.0	74.0	43	50.1	0	1	338	0.00	30.083 
09:55	73.9	73.9	73.9	43	50.0	0	3	338	0.00	30.083 
10:00	74.2	74.2	74.2	43	50.2	1	3	0	0.00	30.084 
10:05	74.9	74.9	74.9	42	50.2	0	2	0	0.00	30.084 
10:10	75.4	75.4	77.6	41	50.0	1	3	0	0.00	30.084 
10:15	75.4	75.4	77.6	41	50.0	1	3	0	0.00	30.086 
10:20	75.3	75.3	77.6	41	50.0	1	3	0	0.00	30.086 
10:25	75.3	75.3	77.5	39	48.6	0	3	0	0.00	30.086 
10:30	75.4	75.4	77.6	41	50.0	0	2	112	0.00	30.086 
10:35	75.6	75.6	77.6	39	48.9	1	4	112	0.00	30.086 
10:40	75.8	75.8	77.7	39	49.1	1	4	112	0.00	30.086 
10:45	76.3	76.3	77.8	38	48.8	1	4	112	0.00	30.086 
10:50	76.5	76.5	77.9	38	49.0	0	3	112	0.00	30.086 
10:55	76.8	76.8	78.0	37	48.5	0	3	112	0.00	30.086 
11:00	77.0	77.0	78.0	35	47.2	2	6	112	0.00	30.084 
11:05	76.7	76.7	78.0	38	49.2	1	5	112	0.00	30.084 
11:10	76.5	76.5	77.8	36	47.5	1	5	112	0.00	30.084 
11:15	76.5	76.5	78.0	39	49.7	2	5	90	0.00	30.084 
11:20	76.7	76.7	78.1	40	50.5	2	6	90	0.00	30.084 
11:25	76.7	76.7	78.0	37	48.4	1	2	90	0.00	30.084 
11:30	76.8	76.8	78.0	38	49.2	0	1	90	0.00	30.085 
11:35	77.4	77.4	78.3	37	49.1	1	4	90	0.00	30.085 
11:40	77.9	77.9	78.5	37	49.5	0	2	90	0.00	30.085 
11:45	78.5	78.5	78.7	36	49.3	1	2	90	0.00	30.085 
11:50	78.1	78.1	78.4	34	47.4	1	2	90	0.00	30.085 
11:55	77.9	77.9	78.4	36	48.8	1	2	90	0.00	30.085 
12:00	78.1	78.1	78.4	33	46.6	0	2	90	0.00	30.087 
12:05	77.9	77.9	78.3	33	46.5	1	2	0	0.00	30.087 
12:10	77.6	77.6	78.2	35	47.8	2	4	292	0.00	30.087 
12:15	78.1	78.1	78.5	36	48.9	1	3	292	0.00	30.083 
12:20	78.1	78.1	78.4	34	47.4	1	3	292	0.00	30.083 
12:25	78.6	78.6	78.9	37	50.1	1	2	292	0.00	30.083 
12:30	78.8	78.8	78.6	32	46.4	1	4	315	0.00	30.080 
12:35	78.6	78.6	78.7	35	48.6	1	4	292	0.00	30.080 
12:40	79.0	79.0	79.0	36	49.7	1	3	112	0.00	30.080 
12:45	79.6	79.6	79.2	34	48.7	1	3	45	0.00	30.073 
12:50	79.9	79.9	79.3	32	47.4	1	4	135	0.00	30.073 
12:55	80.1	80.1	79.4	32	47.6	2	5	90	0.00	30.073 
13:00	79.4	79.4	79.0	32	46.9	1	2	270	0.00	30.074 
13:05	77.7	77.7	78.2	34	47.1	0	2	270	0.00	30.074 
13:10	77.6	77.6	78.4	38	50.0	1	3	112	0.00	30.074 
13:15	78.5	78.5	78.6	33	47.0	1	2	112	0.00	30.071 
13:20	79.6	79.6	79.2	34	48.7	2	5	112	0.00	30.071 
13:25	80.1	80.1	79.6	35	50.0	1	2	112	0.00	30.071 
13:30	79.9	79.9	79.2	31	46.5	1	4	315	0.00	30.071 
13:35	79.8	79.8	79.0	29	44.7	1	3	292	0.00	30.071 
13:40	79.8	79.8	79.1	31	46.5	1	2	202	0.00	30.071 
13:45	80.1	80.1	79.5	33	48.4	1	3	315	0.00	30.067 
13:50	80.7	80.7	79.6	30	46.4	1	4	315	0.00	30.067 
13:55	81.2	81.2	79.7	27	44.0	1	4	315	0.00	30.067 
14:00	80.5	80.5	79.5	30	46.2	1	3	315	0.00	30.061 
14:05	79.4	79.4	78.8	30	45.2	0	3	338	0.00	30.061 
14:10	78.6	78.6	78.5	32	46.3	1	3	338	0.00	30.061 
14:15	79.2	79.2	78.7	30	45.1	1	3	338	0.00	30.060 
14:20	80.3	80.3	79.4	31	46.9	1	4	270	0.00	30.060 
14:25	80.9	80.9	79.5	27	43.8	1	4	270	0.00	30.060 
14:30	81.1	81.1	79.7	28	44.9	1	4	315	0.00	30.053 
14:35	81.2	81.2	79.7	27	44.0	3	6	270	0.00	30.053 
14:40	81.4	81.4	79.9	27	44.2	2	4	270	0.00	30.053 
14:45	82.0	82.0	80.6	31	48.4	0	2	270	0.00	30.053 
14:50	81.6	81.6	80.1	28	45.3	1	5	90	0.00	30.053 
14:55	80.3	80.3	79.3	29	45.1	1	4	270	0.00	30.053 
15:00	80.1	80.1	79.1	27	43.1	1	5	270	0.00	30.054 
15:05	80.1	80.1	79.2	29	44.9	0	1	270	0.00	30.054 
15:10	81.1	81.1	79.7	28	44.9	1	2	270	0.00	30.054 
15:15	81.4	81.4	79.9	27	44.2	0	4	112	0.00	30.048 
15:20	80.5	80.5	79.3	27	43.4	0	3	112	0.00	30.048 
15:25	79.9	79.9	79.0	28	43.9	0	2	292	0.00	30.048 
15:30	80.1	80.1	79.2	29	44.9	0	2	292	0.00	30.043 
15:35	79.9	79.9	79.1	29	44.8	0	3	292	0.00	30.043 
15:40	79.2	79.2	78.7	30	45.1	1	3	292	0.00	30.043 
15:45	79.0	79.0	78.5	28	43.1	1	4	112	0.00	30.043 
15:50	80.3	80.3	79.4	30	46.0	1	4	112	0.00	30.043 
15:55	81.6	81.6	80.1	29	46.2	1	5	292	0.00	30.043 
16:00	82.4	82.4	80.6	28	46.0	1	3	68	0.00	30.037 
16:05	82.4	82.4	80.5	27	45.0	1	6	292	0.00	30.037 
16:10	82.2	82.2	80.4	27	44.9	1	5	68	0.00	30.037 
16:15	81.8	81.8	80.1	27	44.5	0	2	68	0.00	30.037 
16:20	81.1	81.1	79.7	27	43.9	0	3	68	0.00	30.037 
16:25	80.7	80.7	79.4	27	43.6	1	4	68	0.00	30.037 
16:30	80.1	80.1	79.1	28	44.0	0	3	270	0.00	30.038 
16:35	80.1	80.1	79.1	28	44.0	1	3	248	0.00	30.038 
16:40	80.7	80.7	79.4	27	43.6	0	2	248	0.00	30.038 
16:45	81.4	81.4	79.7	25	42.2	3	6	315	0.00	30.036 
16:50	81.6	81.6	79.9	26	43.4	2	5	292	0.00	30.036 
16:55	81.6	81.6	79.9	25	42.3	1	4	292	0.00	30.036 
17:00	82.4	82.4	80.5	26	44.0	1	3	292	0.00	30.027 
17:05	82.8	82.8	80.8	26	44.4	1	5	112	0.00	30.027 
17:10	82.8	82.8	80.8	26	44.4	1	4	248	0.00	30.027 
17:15	82.4	82.4	80.5	26	44.0	1	3	292	0.00	30.026 
17:20	82.4	82.4	80.5	27	45.0	0	3	90	0.00	30.026 
17:25	83.0	83.0	80.9	26	44.6	1	3	90	0.00	30.026 
17:30	83.4	83.4	81.1	25	43.9	1	4	112	0.00	30.027 
17:35	83.2	83.2	80.9	24	42.6	2	4	292	0.00	30.027 
17:40	82.6	82.6	80.5	25	43.2	2	5	270	0.00	30.027 
17:45	82.4	82.4	80.3	23	40.9	2	4	270	0.00	30.025 
17:50	82.2	82.2	80.2	24	41.8	2	5	292	0.00	30.025 
17:55	82.0	82.0	80.0	23	40.5	1	4	292	0.00	30.025 
18:00	82.0	82.0	80.0	23	40.5	1	4	292	0.00	30.021 
18:05	82.0	82.0	80.1	24	41.6	1	6	292	0.00	30.021 
18:10	82.4	82.4	80.3	24	42.0	2	4	270	0.00	30.021 
18:15	81.8	81.8	80.0	25	42.5	2	4	270	0.00	30.017 
18:20	81.8	81.8	80.0	25	42.5	1	3	270	0.00	30.017 
18:25	81.6	81.6	79.9	26	43.4	0	2	270	0.00	30.017 
18:30	81.6	81.6	79.8	24	41.3	1	2	270	0.00	30.014 
18:35	81.6	81.6	79.8	24	41.3	1	3	270	0.00	30.014 
18:40	81.2	81.2	79.5	24	41.0	1	2	292	0.00	30.014 
18:45	81.1	81.1	79.5	25	41.9	0	1	292	0.00	30.013 
18:50	81.1	81.1	79.6	26	42.9	0	2	292	0.00	30.013 
18:55	80.9	80.9	79.4	25	41.8	1	4	292	0.00	30.013 
19:00	81.1	81.1	79.7	27	43.9	1	4	292	0.00	30.010 
19:05	80.9	80.9	79.5	27	43.8	1	4	292	0.00	30.010 
19:10	80.9	80.9	79.5	26	42.8	1	3	315	0.00	30.010 
19:15	80.7	80.7	79.5	28	44.5	1	3	90	0.00	30.005 
19:20	80.7	80.7	79.4	27	43.6	0	3	90	0.00	30.005 
19:25	80.7	80.7	79.5	28	44.5	0	2	90	0.00	30.005 
19:30	80.7	80.7	79.4	27	43.6	0	4	270	0.00	30.004 
19:35	80.5	80.5	79.3	27	43.4	0	3	68	0.00	30.004 
19:40	80.1	80.1	79.0	26	42.1	1	4	315	0.00	30.004 
19:45	79.9	79.9	78.9	26	41.9	1	2	315	0.00	30.006 
19:50	79.6	79.6	78.7	26	41.7	1	4	315	0.00	30.006 
19:55	79.2	79.2	78.5	27	42.3	1	4	292	0.00	30.006 
20:00	78.8	78.8	78.4	28	42.9	0	2	292	0.00	30.007 
20:05	78.6	78.6	78.3	28	42.7	1	3	292	0.00	30.007 
20:10	78.6	78.6	78.2	27	41.8	1	3	292	0.00	30.007 
20:15	78.5	78.5	78.2	28	42.7	0	1	292	0.00	30.002 
20:20	78.1	78.1	78.0	28	42.3	0	1	292	0.00	30.002 
20:25	77.9	77.9	78.0	29	43.1	0	2	292	0.00	30.002 
20:30	77.6	77.6	77.9	30	43.7	0	1	292	0.00	30.010 
20:35	77.0	77.0	77.7	30	43.2	0	1	292	0.00	30.010 
20:40	76.7	76.7	77.6	31	43.8	0	1	292	0.00	30.010 
20:45	76.3	76.3	77.5	32	44.3	0	0	---	0.00	30.014 
20:50	76.0	76.0	77.5	33	44.8	0	1	292	0.00	30.014 
20:55	75.6	75.6	77.3	33	44.5	0	1	292	0.00	30.014 
21:00	75.3	75.3	77.2	33	44.2	0	2	292	0.00	30.017 
21:05	75.1	75.1	77.2	34	44.8	1	4	292	0.00	30.017 
21:10	74.9	74.9	74.9	35	45.4	1	3	292	0.00	30.017 
21:15	74.6	74.6	74.6	36	45.9	0	2	292	0.00	30.015 
21:20	74.2	74.2	74.2	37	46.2	0	1	292	0.00	30.015 
21:25	73.9	73.9	73.9	38	46.7	0	1	292	0.00	30.015 
21:30	73.5	73.5	73.5	38	46.3	0	1	292	0.00	30.015 
21:35	73.2	73.2	73.2	39	46.7	0	1	292	0.00	30.015 
21:40	72.8	72.8	72.8	39	46.4	0	1	292	0.00	30.015 
21:45	72.5	72.5	72.5	39	46.1	0	3	292	0.00	30.021 
21:50	72.5	72.5	72.5	39	46.1	0	2	292	0.00	30.021 
21:55	72.3	72.3	72.3	40	46.6	0	1	292	0.00	30.021 
22:00	72.0	72.0	72.0	41	47.0	0	0	---	0.00	30.027 
22:05	71.6	71.6	71.6	41	46.6	0	1	292	0.00	30.027 
22:10	71.3	71.3	71.3	42	47.0	0	0	---	0.00	30.027 
22:15	70.9	70.9	70.9	42	46.6	0	1	292	0.00	30.030 
22:20	70.6	70.6	70.6	43	47.0	0	1	292	0.00	30.030 
22:25	70.3	70.3	70.3	43	46.7	0	1	292	0.00	30.030 
22:30	70.1	70.1	70.1	44	47.2	0	0	---	0.00	30.032 
22:35	69.8	69.8	69.8	44	46.9	0	0	---	0.00	30.032 
22:40	69.4	69.4	69.4	45	47.1	0	0	---	0.00	30.032 
22:45	68.9	68.9	68.9	45	46.7	0	0	---	0.00	30.033 
22:50	68.6	68.6	68.6	46	47.0	0	0	---	0.00	30.033 
22:55	68.3	68.3	68.3	46	46.7	0	0	---	0.00	30.033 
23:00	67.9	67.9	67.9	46	46.3	0	0	---	0.00	30.035 
23:05	67.6	67.6	67.6	47	46.6	0	0	---	0.00	30.035 
23:10	67.4	67.4	67.4	47	46.5	0	0	---	0.00	30.035 
23:15	67.3	67.3	67.3	48	46.9	0	0	---	0.00	30.039 
23:20	67.1	67.1	67.1	47	46.2	0	1	292	0.00	30.039 
23:25	67.1	67.1	67.1	47	46.2	0	0	---	0.00	30.039 
23:30	67.1	67.1	67.1	47	46.2	0	0	---	0.00	30.044 
23:35	66.9	66.9	66.9	48	46.6	0	0	---	0.00	30.044 
23:40	66.8	66.8	66.8	47	45.9	0	0	---	0.00	30.044 
23:45	66.4	66.4	66.4	48	46.1	0	0	---	0.00	30.044 
23:50	66.3	66.3	66.3	48	46.0	0	0	---	0.00	30.044 
23:55	66.0	66.0	66.0	49	46.3	0	0	---	0.00	30.044 

CoCoRaHS
IN-AL-39
A2 Web Hosting
Creative Commons License
GoDaddy
search engine by freefind advanced

loaded 2018-11-18 11:57:15 • last modified 2010-11-18 10:43:29
Privacy PolicyDisclaimer
• wx.awcolley.com is powered by PmWiki v.2002016 •
• all content (unless otherwise noted) © 2018 A W Colley